Flight Track Log - Related Links

Times and Time Zones

All times are in EDT time to prevent confusion due to time zone crossing. See the JST963 flight status page for this flight to view local times or setup timezone preferences in your user account.

Time Position Orientation Groundspeed Altitude Reporting Facility
EDT Latitude Longitude Course Direction KTS MPH feet Rate Location/Type
Sun 05:22:20 PM -16.8969 145.7582 108° East 155 178 900  Level Aus ATC (RADAR)
Sun 05:22:39 PM -16.9010 145.7710 100° East 166 191 1,500 1,920 Climbing FlightAware ADS-B
Sun 05:22:45 PM -16.9004 145.7778 100° East 178 205 1,700 1,800 Climbing Aus ATC (RADAR)
Sun 05:22:59 PM -16.8930 145.7850 59° Northeast 157 181 2,100 1,765 Climbing FlightAware ADS-B
Sun 05:23:19 PM -16.8800 145.7960 39° Northeast 163 188 2,700 1,650 Climbing FlightAware ADS-B
Sun 05:23:39 PM -16.8690 145.8050 38° Northeast 167 192 3,200 1,200 Climbing FlightAware ADS-B
Sun 05:23:54 PM -16.8590 145.8140 41° Northeast 184 212 3,400 811 Climbing FlightAware ADS-B
Sun 05:24:16 PM -16.8470 145.8270 46° Northeast 204 235 3,700 1,200 Climbing FlightAware ADS-B
Sun 05:24:24 PM -16.8450 145.8380 79° East 217 250 4,000 1,667 Climbing FlightAware ADS-B
Sun 05:24:34 PM -16.8480 145.8480 107° East 224 258 4,200 857 Climbing FlightAware ADS-B
Sun 05:24:45 PM -16.8540 145.8570 125° Southeast 233 268 4,300 600 Climbing FlightAware ADS-B
Sun 05:24:54 PM -16.8640 145.8620 154° Southeast 245 282 4,400 857 Climbing FlightAware ADS-B
Sun 05:24:59 PM -16.8700 145.8640 162° South 250 288 4,500 1,200 Climbing FlightAware ADS-B
Sun 05:25:04 PM -16.8750 145.8640 180° South 246 283 4,600 1,920 Climbing FlightAware ADS-B
Sun 05:25:24 PM -16.9000 145.8590 191° South 266 306 5,300 2,667 Climbing FlightAware ADS-B
Sun 05:25:49 PM -16.9290 145.8490 198° South 258 297 6,600 2,933 Climbing FlightAware ADS-B
Sun 05:26:09 PM -16.9530 145.8410 198° South 271 312 7,500 2,850 Climbing FlightAware ADS-B
Sun 05:26:29 PM -16.9770 145.8320 200° South 263 303 8,500 2,700 Climbing FlightAware ADS-B
Sun 05:26:49 PM -17.0000 145.8220 203° Southwest 278 320 9,300 2,291 Climbing FlightAware ADS-B
Sun 05:27:24 PM -17.0430 145.8040 202° Southwest 291 335 10,600 1,543 Climbing FlightAware ADS-B
Sun 05:27:59 PM -17.0895 145.7844 202° Southwest 305 351 11,100 857 Climbing Aus ATC (RADAR)
Sun 05:27:59 PM -17.0900 145.7850 202° Southwest 330 380 11,100 1,200 Level FlightAware ADS-B
Sun 05:28:34 PM -17.1415 145.7630 202° Southwest 337 388 11,800 1,050 Climbing Aus ATC (RADAR)
Sun 05:28:39 PM -17.1500 145.7600 202° Southwest 364 419 11,800 1,714 Level FlightAware ADS-B
Sun 05:29:09 PM -17.1990 145.7400 201° Southwest 367 422 12,800 2,273 Climbing FlightAware ADS-B
Sun 05:29:45 PM -17.2560 145.7170 201° Southwest 363 418 14,300 2,571 Climbing FlightAware ADS-B
Sun 05:30:19 PM -17.3090 145.6950 202° Southwest 365 420 15,800 2,087 Climbing FlightAware ADS-B
Sun 05:30:54 PM -17.3670 145.6710 202° Southwest 366 421 16,700 1,543 Climbing FlightAware ADS-B
Sun 05:31:29 PM -17.4230 145.6480 201° Southwest 385 443 17,600 1,521 Climbing FlightAware ADS-B
Sun 05:32:05 PM -17.4850 145.6220 202° Southwest 395 455 18,500 1,478 Climbing FlightAware ADS-B
Sun 05:32:38 PM -17.5421 145.5992 202° Southwest 395 455 19,300 1,371 Climbing Aus ATC (RADAR)
Sun 05:32:40 PM -17.5420 145.5990 202° Southwest 404 465 19,300 1,385 Level FlightAware ADS-B
Sun 05:33:17 PM -17.6030 145.5740 201° Southwest 411 473 20,200 1,412 Climbing FlightAware ADS-B
Sun 05:34:05 PM -17.6970 145.5360 201° Southwest 422 486 21,300 1,213 Climbing FlightAware ADS-B
Sun 05:34:46 PM -17.7720 145.5040 202° Southwest 431 496 22,000 1,040 Climbing FlightAware ADS-B
Sun 05:35:20 PM -17.8350 145.4780 201° Southwest 437 503 22,600 1,254 Climbing FlightAware ADS-B
Sun 05:35:53 PM -17.8985 145.4520 201° Southwest 434 499 23,400 1,371 Climbing Aus ATC (RADAR)
Sun 05:35:55 PM -17.9010 145.4510 201° Southwest 438 504 23,400 973 Level FlightAware ADS-B
Sun 05:36:30 PM -17.9700 145.4230 201° Southwest 442 509 24,000 1,029 Climbing FlightAware ADS-B
Sun 05:37:05 PM -18.0370 145.3950 202° Southwest 445 512 24,600 1,059 Climbing FlightAware ADS-B
Sun 05:37:38 PM -18.0995 145.3684 202° Southwest 444 511 25,200 1,029 Climbing Aus ATC (RADAR)
Sun 05:37:40 PM -18.1050 145.3670 202° Southwest 446 513 25,200 571 Level FlightAware ADS-B
Sun 05:38:20 PM -18.1780 145.3370 201° Southwest 453 521 25,600 771 Climbing FlightAware ADS-B
Sun 05:38:50 PM -18.2410 145.3100 202° Southwest 455 524 26,100 923 Climbing FlightAware ADS-B
Sun 05:39:25 PM -18.3080 145.2820 202° Southwest 456 525 26,600 1,040 Climbing FlightAware ADS-B
Sun 05:40:05 PM -18.3880 145.2490 201° Southwest 453 521 27,400 943 Climbing FlightAware ADS-B
Sun 05:40:35 PM -18.4470 145.2250 201° Southwest 457 526 27,700 677 Climbing FlightAware ADS-B
Sun 05:41:07 PM -18.5109 145.1976 201° Southwest 456 525 28,100 686 Climbing Aus ATC (RADAR)
Sun 05:41:10 PM -18.5160 145.1960 201° Southwest 462 532 28,100 500 Level FlightAware ADS-B
Sun 05:41:43 PM -18.5810 145.1682 201° Southwest 462 532 28,400 486 Climbing Aus ATC (RADAR)
Sun 05:41:47 PM -18.5860 145.1670 201° Southwest 467 537 28,400 649 Level FlightAware ADS-B
Sun 05:42:20 PM -18.6570 145.1370 202° Southwest 470 541 28,800 618 Climbing FlightAware ADS-B
Sun 05:42:55 PM -18.7290 145.1070 202° Southwest 474 545 29,100 896 Climbing FlightAware ADS-B
Sun 05:43:27 PM -18.7941 145.0794 202° Southwest 470 541 29,800 1,371 Climbing Aus ATC (RADAR)
Sun 05:43:30 PM -18.7990 145.0780 202° Southwest 467 537 29,900 1,200 Climbing FlightAware ADS-B
Sun 05:44:02 PM -18.8641 145.0502 202° Southwest 462 532 30,500 900 Climbing Aus ATC (RADAR)
Sun 05:44:10 PM -18.8810 145.0440 202° Southwest 466 536 30,500 316 Level FlightAware ADS-B
Sun 05:44:40 PM -18.9410 145.0180 202° Southwest 470 541 30,700 738 Climbing FlightAware ADS-B
Sun 05:45:15 PM -19.0120 144.9880 202° Southwest 467 537 31,300 1,040 Climbing FlightAware ADS-B
Sun 05:45:55 PM -19.0930 144.9550 201° Southwest 463 533 32,000 973 Climbing FlightAware ADS-B
Sun 05:46:29 PM -19.1610 144.9260 202° Southwest 463 533 32,500 806 Climbing FlightAware ADS-B
Sun 05:47:02 PM -19.2240 144.8990 202° Southwest 461 531 32,900 618 Climbing FlightAware ADS-B
Sun 05:47:37 PM -19.2940 144.8700 201° Southwest 467 537 33,200 646 Climbing FlightAware ADS-B
Sun 05:48:07 PM -19.3549 144.8439 201° Southwest 464 534 33,600 811 Climbing Aus ATC (RADAR)
Sun 05:48:14 PM -19.3710 144.8370 201° Southwest 465 535 33,700 474 Climbing FlightAware ADS-B
Sun 05:48:45 PM -19.4320 144.8120 201° Southwest 467 537 33,900 265 Climbing FlightAware ADS-B
Sun 05:49:22 PM -19.5040 144.7810 202° Southwest 464 534 34,000 82 Climbing FlightAware ADS-B
Sun 05:49:58 PM -19.5780 144.7500 202° Southwest 467 537 34,000  Level FlightAware ADS-B
Sun 05:50:34 PM -19.6510 144.7200 201° Southwest 465 535 34,000  Level FlightAware ADS-B
Sun 05:51:12 PM -19.7240 144.6880 202° Southwest 465 535 34,000  Level FlightAware ADS-B
Sun 05:51:51 PM -19.8050 144.6540 202° Southwest 462 532 34,000  Level FlightAware ADS-B
Sun 05:52:26 PM -19.8690 144.6270 202° Southwest 461 531 34,000  Level FlightAware ADS-B
Sun 05:52:56 PM -19.9330 144.6000 202° Southwest 460 529 34,000  Level FlightAware ADS-B
Sun 05:53:34 PM -20.0070 144.5680 202° Southwest 456 525 34,000  Level FlightAware ADS-B
Sun 05:54:12 PM -20.0840 144.5360 201° Southwest 453 521 34,000  Level FlightAware ADS-B
Sun 05:54:44 PM -20.1460 144.5090 202° Southwest 453 521 34,000  Level FlightAware ADS-B
Sun 05:55:15 PM -20.2070 144.4830 202° Southwest 451 519 34,000  Level FlightAware ADS-B
Sun 05:55:56 PM -20.2860 144.4500 201° Southwest 449 517 34,000  Level FlightAware ADS-B
Sun 05:56:31 PM -20.3530 144.4210 202° Southwest 448 516 34,000  Level FlightAware ADS-B
Sun 05:57:04 PM -20.4170 144.3940 202° Southwest 447 514 34,000  Level FlightAware ADS-B
Sun 05:57:42 PM -20.4900 144.3630 202° Southwest 446 513 34,000  Level FlightAware ADS-B
Sun 05:58:13 PM -20.5490 144.3370 202° Southwest 445 512 34,000 182 Level FlightAware ADS-B
Sun 05:58:15 PM -20.5535 144.3346 202° Southwest 445 512 34,100 188 Climbing Aus ATC (RADAR)
Sun 05:58:45 PM -20.6106 144.3103 202° Southwest 443 510 34,100 -133 Level Aus ATC (RADAR)
Sun 05:59:00 PM -20.6360 144.3000 202° Southwest 445 512 34,000 -113 Descending FlightAware ADS-B
Sun 05:59:38 PM -20.7100 144.2680 202° Southwest 445 512 34,000  Level FlightAware ADS-B
Sun 06:00:10 PM -20.7740 144.2410 202° Southwest 447 514 34,000 -97 Level FlightAware ADS-B
Sun 06:00:40 PM -20.8321 144.2188 202° Southwest 444 511 33,900  Descending Aus ATC (RADAR)
Sun 06:00:49 PM -20.8510 144.2150 202° Southwest 458 527 34,000 133 Climbing FlightAware ADS-B
Sun 06:01:25 PM -20.9270 144.1990 191° South 464 534 34,000  Level FlightAware ADS-B
Sun 06:01:57 PM -20.9940 144.1840 192° South 465 535 34,000 88 Level FlightAware ADS-B
Sun 06:02:33 PM -21.0680 144.1670 192° South 467 537 34,100 83 Climbing FlightAware ADS-B
Sun 06:03:09 PM -21.1470 144.1500 191° South 468 539 34,100 -83 Level FlightAware ADS-B
Sun 06:03:45 PM -21.2230 144.1330 192° South 470 541 34,000 -87 Descending FlightAware ADS-B
Sun 06:04:18 PM -21.2950 144.1170 192° South 470 541 34,000 88 Level FlightAware ADS-B
Sun 06:04:53 PM -21.3680 144.1010 192° South 468 539 34,100  Climbing FlightAware ADS-B
Sun 06:05:30 PM -21.4480 144.0830 192° South 466 536 34,000 -83 Descending FlightAware ADS-B
Sun 06:06:05 PM -21.5220 144.0660 192° South 466 536 34,000  Level FlightAware ADS-B
Sun 06:06:37 PM -21.5890 144.0510 192° South 466 536 34,000  Level FlightAware ADS-B
Sun 06:07:05 PM -21.6470 144.0380 192° South 463 533 34,000  Level FlightAware ADS-B
Sun 06:07:41 PM -21.7250 144.0210 191° South 460 529 34,000 87 Level FlightAware ADS-B
Sun 06:08:14 PM -21.7942 144.0047 191° South 456 525 34,100  Climbing Aus ATC (RADAR)
Sun 06:08:15 PM -21.7950 144.0050 191° South 457 526 34,000 -158 Descending FlightAware ADS-B
Sun 06:08:52 PM -21.8730 143.9880 191° South 453 521 34,000  Level FlightAware ADS-B
Sun 06:09:28 PM -21.9450 143.9720 192° South 452 520 34,000  Level FlightAware ADS-B
Sun 06:10:01 PM -22.0110 143.9570 192° South 452 520 34,000  Level FlightAware ADS-B
Sun 06:10:37 PM -22.0880 143.9400 192° South 451 519 34,000 154 Level FlightAware ADS-B
Sun 06:10:40 PM -22.0903 143.9355 192° South 452 520 34,100  Climbing Aus ATC (RADAR)
Sun 06:11:01 PM -22.1370 143.9280 193° South 452 520 34,000 87 Descending FlightAware ADS-B
Sun 06:11:49 PM -22.2350 143.9051 193° South 453 521 34,200  Climbing Aus ATC (RADAR)
Sun 06:11:50 PM -22.2380 143.9060 193° South 451 519 34,000 -333 Descending FlightAware ADS-B
Sun 06:12:25 PM -22.3070 143.8900 192° South 449 517 34,000  Level FlightAware ADS-B
Sun 06:12:59 PM -22.3780 143.8740 192° South 448 516 34,000  Level FlightAware ADS-B
Sun 06:13:34 PM -22.4490 143.8580 192° South 448 516 34,000  Level FlightAware ADS-B
Sun 06:14:10 PM -22.5240 143.8410 192° South 449 517 34,000  Level FlightAware ADS-B
Sun 06:14:43 PM -22.5910 143.8260 192° South 450 518 34,000  Level FlightAware ADS-B
Sun 06:15:19 PM -22.6630 143.8100 192° South 451 519 34,000  Level FlightAware ADS-B
Sun 06:15:56 PM -22.7410 143.7920 192° South 452 520 34,000  Level FlightAware ADS-B
Sun 06:16:31 PM -22.8120 143.7760 192° South 451 519 34,000  Level FlightAware ADS-B
Sun 06:17:04 PM -22.8800 143.7600 192° South 450 518 34,000  Level FlightAware ADS-B
Sun 06:17:39 PM -22.9520 143.7440 192° South 449 517 34,000  Level FlightAware ADS-B
Sun 06:18:17 PM -23.0260 143.7270 192° South 448 516 34,000  Level FlightAware ADS-B
Sun 06:18:49 PM -23.0940 143.7120 191° South 448 516 34,000  Level FlightAware ADS-B
Sun 06:19:25 PM -23.1630 143.6960 192° South 448 516 34,000  Level FlightAware ADS-B
Sun 06:20:01 PM -23.2400 143.6780 192° South 450 518 34,000  Level FlightAware ADS-B
Sun 06:20:37 PM -23.3130 143.6610 192° South 452 520 34,000  Level FlightAware ADS-B
Sun 06:20:48 PM -23.3960 143.6404 16° North 34,000  Level Aus ATC (Calculated)
Sun 06:21:08 PM -23.3780 143.6460 192° South 454 522 34,000  Level FlightAware ADS-B
Sun 06:21:45 PM -23.4520 143.6300 192° South 456 525 34,000  Level FlightAware ADS-B
Sun 06:22:20 PM -23.5270 143.6120 192° South 456 525 34,000  Level FlightAware ADS-B
Sun 06:22:52 PM -23.5940 143.5970 192° South 456 525 34,000  Level FlightAware ADS-B
Sun 06:23:30 PM -23.6720 143.5790 192° South 453 521 34,000 80 Level FlightAware ADS-B
Sun 06:24:07 PM -23.7470 143.5620 192° South 450 518 34,100  Climbing FlightAware ADS-B
Sun 06:24:39 PM -23.8120 143.5470 192° South 447 514 34,000 -88 Descending FlightAware ADS-B
Sun 06:25:15 PM -23.8850 143.5300 192° South 445 512 34,000  Level FlightAware ADS-B
Sun 06:25:48 PM -23.9900 143.5047 13° North 34,000  Level Aus ATC (Calculated)
Sun 06:25:51 PM -23.9580 143.5130 192° South 443 510 34,000  Level FlightAware ADS-B
Sun 06:26:27 PM -24.0300 143.4960 192° South 443 510 34,000  Level FlightAware ADS-B
Sun 06:26:58 PM -24.0930 143.4820 191° South 445 512 34,000  Level FlightAware ADS-B
Sun 06:27:19 PM -24.1925 143.4581 14° North 34,000  Level Aus ATC (Calculated)
Sun 06:27:35 PM -24.1670 143.4650 192° South 446 513 34,000  Level FlightAware ADS-B
Sun 06:28:11 PM -24.2390 143.4460 192° South 443 510 34,000  Level FlightAware ADS-B
Sun 06:28:22 PM -24.2933 143.4079 147° Southeast 36,000  Climbing Aus ATC (Calculated)
Sun 06:28:47 PM -24.3090 143.4190 192° South 433 498 34,000 -2,105 Descending FlightAware ADS-B
Sun 06:29:19 PM -24.3670 143.3890 205° Southwest 432 497 34,000  Level FlightAware ADS-B
Sun 06:29:53 PM -24.4290 143.3580 204° Southwest 431 496 34,000  Level FlightAware ADS-B
Sun 06:30:30 PM -24.4970 143.3230 205° Southwest 432 497 34,000  Level FlightAware ADS-B
Sun 06:31:04 PM -24.5580 143.2920 205° Southwest 432 497 34,000  Level FlightAware ADS-B
Sun 06:31:30 PM -24.6349 143.2369 61° Northeast 36,000  Climbing Aus ATC (Calculated)
Sun 06:31:40 PM -24.6240 143.2590 204° Southwest 431 496 34,000 -2,667 Descending FlightAware ADS-B
Sun 06:31:57 PM -24.7218 143.1932 41° Northeast 36,000  Climbing Aus ATC (Calculated)
Sun 06:32:15 PM -24.6870 143.2270 204° Southwest 432 497 34,000 -2,308 Descending FlightAware ADS-B
Sun 06:32:49 PM -24.7480 143.1960 204° Southwest 433 498 34,000  Level FlightAware ADS-B
Sun 06:33:17 PM -24.8902 143.1085 33° Northeast 36,000  Climbing Aus ATC (Calculated)
Sun 06:33:25 PM -24.8150 143.1620 204° Southwest 432 497 34,000 -2,591 Descending FlightAware ADS-B
Sun 06:34:01 PM -24.8770 143.1300 205° Southwest 429 494 34,100  Climbing FlightAware ADS-B
Sun 06:34:33 PM -24.9370 143.1000 204° Southwest 426 490 34,000 -90 Descending FlightAware ADS-B
Sun 06:35:08 PM -25.0010 143.0670 205° Southwest 423 487 34,000 83 Level FlightAware ADS-B
Sun 06:35:45 PM -25.0640 143.0350 205° Southwest 418 481 34,100  Climbing FlightAware ADS-B
Sun 06:36:18 PM -25.1230 143.0050 205° Southwest 413 475 34,000 -86 Descending FlightAware ADS-B
Sun 06:36:55 PM -25.1860 142.9730 205° Southwest 411 473 34,000  Level FlightAware ADS-B
Sun 06:37:30 PM -25.2470 142.9410 205° Southwest 409 471 34,000  Level FlightAware ADS-B
Sun 06:38:03 PM -25.3040 142.9120 205° Southwest 408 470 34,000  Level FlightAware ADS-B
Sun 06:38:16 PM -25.3633 142.8689 94° East 36,000  Climbing Aus ATC (Calculated)
Sun 06:38:39 PM -25.3640 142.8810 205° Southwest 409 471 34,000 -1,967 Descending FlightAware ADS-B
Sun 06:39:17 PM -25.4310 142.8460 205° Southwest 410 472 34,000  Level FlightAware ADS-B
Sun 06:39:48 PM -25.4850 142.8180 205° Southwest 411 473 34,000  Level FlightAware ADS-B
Sun 06:40:25 PM -25.5490 142.7860 204° Southwest 412 474 34,000  Level FlightAware ADS-B
Sun 06:40:57 PM -25.6010 142.7590 205° Southwest 413 475 34,000  Level FlightAware ADS-B
Sun 06:41:36 PM -25.6720 142.7220 205° Southwest 414 476 34,000  Level FlightAware ADS-B
Sun 06:42:09 PM -25.7290 142.6930 205° Southwest 414 476 34,000  Level FlightAware ADS-B
Sun 06:42:45 PM -25.7920 142.6600 205° Southwest 414 476 34,000  Level FlightAware ADS-B
Sun 06:43:16 PM -25.8753 142.6072 41° Northeast 36,000  Climbing Aus ATC (Calculated)
Sun 06:43:21 PM -25.8540 142.6280 205° Southwest 413 475 34,000 -3,000 Descending FlightAware ADS-B
Sun 06:43:56 PM -25.9150 142.5960 205° Southwest 412 474 34,000  Level FlightAware ADS-B
Sun 06:44:31 PM -25.9750 142.5650 205° Southwest 412 474 34,000  Level FlightAware ADS-B
Sun 06:45:03 PM -26.0300 142.5360 205° Southwest 412 474 34,000  Level FlightAware ADS-B
Sun 06:45:29 PM -26.1152 142.4837 38° Northeast 36,000  Climbing Aus ATC (Calculated)
Sun 06:45:39 PM -26.0910 142.5050 205° Southwest 412 474 34,000 -1,935 Descending FlightAware ADS-B
Sun 06:46:29 PM -26.1961 142.4420 38° Northeast 36,000  Climbing Aus ATC (Calculated)
Sun 06:46:31 PM -26.1740 142.4610 205° Southwest 411 473 34,000 -3,529 Descending FlightAware ADS-B
Sun 06:47:03 PM -26.2370 142.4280 205° Southwest 408 470 34,000  Level FlightAware ADS-B
Sun 06:47:41 PM -26.3020 142.3940 205° Southwest 406 467 34,000  Level FlightAware ADS-B
Sun 06:48:13 PM -26.3570 142.3660 205° Southwest 404 465 34,000  Level FlightAware ADS-B
Sun 06:48:15 PM -26.3478 142.3635 201° Southwest 36,000  Climbing Aus ATC (Calculated)
Sun 06:48:49 PM -26.4170 142.3340 205° Southwest 402 463 34,000 -1,739 Descending FlightAware ADS-B
Sun 06:49:24 PM -26.4740 142.3040 205° Southwest 401 461 34,000  Level FlightAware ADS-B
Sun 06:49:59 PM -26.5260 142.2770 205° Southwest 401 461 34,000  Level FlightAware ADS-B
Sun 06:50:35 PM -26.5780 142.2500 205° Southwest 401 461 34,000  Level FlightAware ADS-B
Sun 06:51:10 PM -26.6550 142.2090 205° Southwest 400 460 34,000  Level FlightAware ADS-B
Sun 06:51:47 PM -26.7100 142.1800 205° Southwest 400 460 34,000  Level FlightAware ADS-B
Sun 06:52:25 PM -26.7640 142.1520 205° Southwest 400 460 34,000  Level FlightAware ADS-B
Sun 06:53:01 PM -26.8390 142.1110 206° Southwest 401 461 34,000  Level FlightAware ADS-B
Sun 06:53:15 PM -26.8784 142.0872 190° South 36,000  Climbing Aus ATC (Calculated)
Sun 06:53:35 PM -26.8890 142.0850 205° Southwest 401 461 34,000 -2,182 Descending FlightAware ADS-B
Sun 06:54:10 PM -26.9550 142.0500 205° Southwest 401 461 34,000  Level FlightAware ADS-B
Sun 06:54:42 PM -27.0080 142.0220 205° Southwest 400 460 34,000  Level FlightAware ADS-B
Sun 06:55:20 PM -27.0620 141.9940 205° Southwest 400 460 34,000  Level FlightAware ADS-B
Sun 06:55:54 PM -27.1320 141.9570 205° Southwest 397 457 34,000  Level FlightAware ADS-B
Sun 06:56:31 PM -27.1840 141.9290 206° Southwest 397 457 34,000  Level FlightAware ADS-B
Sun 06:57:05 PM -27.2320 141.9040 205° Southwest 397 457 34,000  Level FlightAware ADS-B
Sun 06:57:41 PM -27.2830 141.8770 205° Southwest 397 457 34,000  Level FlightAware ADS-B
Sun 06:58:17 PM -27.3340 141.8500 205° Southwest 397 457 34,000  Level FlightAware ADS-B
Sun 06:58:45 PM -27.5150 141.7632 23° Northeast 12,300  Descending Aus ATC (Calculated)
Sun 06:58:53 PM -27.3850 141.8240 204° Southwest 397 457 34,000 28,933 Climbing FlightAware ADS-B
Sun 06:59:30 PM -27.4370 141.7960 204° Southwest 397 457 34,000  Level FlightAware ADS-B
Sun 06:59:32 PM -27.5683 141.7406 17° North 12,300  Descending Aus ATC (Calculated)
Sun 07:00:06 PM -27.4880 141.7690 204° Southwest 397 457 34,000 18,600 Climbing FlightAware ADS-B
Sun 07:00:42 PM -27.6150 141.7220 198° South 400 460 34,000  Level FlightAware ADS-B
Sun 07:01:18 PM -27.6790 141.6940 201° Southwest 398 458 34,000  Level FlightAware ADS-B
Sun 07:01:53 PM -27.7390 141.6690 200° South 399 459 34,000  Level FlightAware ADS-B
Sun 07:02:27 PM -27.8881 141.6046 21° North 12,300  Descending Aus ATC (Calculated)
Sun 07:02:33 PM -27.8090 141.6390 200° South 397 457 34,000 31,000 Climbing FlightAware ADS-B
Sun 07:03:09 PM -27.8710 141.6130 200° South 397 457 34,000  Level FlightAware ADS-B
Sun 07:03:59 PM -27.9480 141.5800 201° Southwest 397 457 34,000  Level FlightAware ADS-B
Sun 07:04:21 PM -28.1013 141.5135 21° North 12,300  Descending Aus ATC (Calculated)
Sun 07:04:35 PM -28.0190 141.5490 201° Southwest 398 458 34,000 23,250 Climbing FlightAware ADS-B
Sun 07:05:17 PM -28.0840 141.5220 201° Southwest 397 457 34,000  Level FlightAware ADS-B
Sun 07:05:26 PM -28.2078 141.4678 21° North 12,300  Descending Aus ATC (Calculated)
Sun 07:05:52 PM -28.1500 141.4930 201° Southwest 398 458 34,000 22,068 Climbing FlightAware ADS-B
Sun 07:06:25 PM -28.2060 141.4690 201° Southwest 399 459 34,000  Level FlightAware ADS-B
Sun 07:07:06 PM -28.2790 141.4380 201° Southwest 400 460 34,000  Level FlightAware ADS-B
Sun 07:07:44 PM -28.3450 141.4100 200° South 403 464 34,000  Level FlightAware ADS-B
Sun 07:08:18 PM -28.4070 141.3830 201° Southwest 403 464 34,000  Level FlightAware ADS-B
Sun 07:08:52 PM -28.4650 141.3580 201° Southwest 403 464 34,000  Level FlightAware ADS-B
Sun 07:09:16 PM -28.6338 141.2842 21° North 12,300  Descending Aus ATC (Calculated)
Sun 07:09:28 PM -28.5280 141.3310 201° Southwest 402 463 34,000 27,125 Climbing FlightAware ADS-B
Sun 07:10:04 PM -28.5910 141.3030 201° Southwest 400 460 34,000  Level FlightAware ADS-B
Sun 07:10:37 PM -28.6460 141.2790 201° Southwest 399 459 34,000  Level FlightAware ADS-B
Sun 07:11:06 PM -28.6960 141.2580 200° South 399 459 34,000  Level FlightAware ADS-B
Sun 07:11:48 PM -28.7710 141.2250 201° Southwest 399 459 34,000  Level FlightAware ADS-B
Sun 07:12:20 PM -28.8240 141.2030 200° South 399 459 34,000  Level FlightAware ADS-B
Sun 07:13:00 PM -28.8960 141.1710 201° Southwest 400 460 34,000  Level FlightAware ADS-B
Sun 07:13:50 PM -28.9730 141.1370 201° Southwest 400 460 34,000  Level FlightAware ADS-B
Sun 07:14:15 PM -29.1659 141.0525 21° North 12,300  Descending Aus ATC (Calculated)
Sun 07:14:34 PM -29.0560 141.1010 201° Southwest 400 460 34,000 17,132 Climbing FlightAware ADS-B
Sun 07:15:31 PM -29.1470 141.0620 201° Southwest 400 460 34,000  Level FlightAware ADS-B
Sun 07:16:24 PM -29.2420 141.0200 201° Southwest 400 460 34,000  Level FlightAware ADS-B
Sun 07:16:50 PM -29.2940 140.9970 201° Southwest 399 459 34,000  Level FlightAware ADS-B
Sun 07:17:30 PM -29.3520 140.9710 201° Southwest 399 459 34,000  Level FlightAware ADS-B
Sun 07:18:04 PM -29.4210 140.9410 201° Southwest 399 459 34,000  Level FlightAware ADS-B
Sun 07:18:40 PM -29.4840 140.9130 201° Southwest 399 459 34,000  Level FlightAware ADS-B
Sun 07:19:15 PM -29.6975 140.8184 21° North 12,300  Descending Aus ATC (Calculated)
Sun 07:19:16 PM -29.5450 140.8860 201° Southwest 401 461 34,000 35,189 Climbing FlightAware ADS-B
Sun 07:19:45 PM -29.7507 140.7949 21° North 12,300  Descending Aus ATC (Calculated)
Sun 07:19:52 PM -29.6080 140.8590 201° Southwest 402 463 34,000 32,550 Climbing FlightAware ADS-B
Sun 07:20:25 PM -29.6640 140.8340 201° Southwest 403 464 34,000  Level FlightAware ADS-B
Sun 07:21:00 PM -29.7240 140.8070 201° Southwest 403 464 34,000  Level FlightAware ADS-B
Sun 07:21:36 PM -29.7800 140.7840 200° South 404 465 34,000  Level FlightAware ADS-B
Sun 07:22:12 PM -29.8330 140.7610 201° Southwest 404 465 34,000  Level FlightAware ADS-B
Sun 07:22:48 PM -29.8870 140.7390 199° South 404 465 34,000  Level FlightAware ADS-B
Sun 07:23:25 PM -29.9420 140.7150 201° Southwest 404 465 34,000  Level FlightAware ADS-B
Sun 07:24:01 PM -29.9960 140.6930 199° South 404 465 34,000  Level FlightAware ADS-B
Sun 07:24:14 PM -30.1756 140.6057 24° Northeast 12,300  Descending Aus ATC (Calculated)
Sun 07:24:37 PM -30.0500 140.6700 200° South 404 465 34,000 22,068 Climbing FlightAware ADS-B
Sun 07:25:13 PM -30.1040 140.6480 200° South 404 465 34,000  Level FlightAware ADS-B
Sun 07:25:49 PM -30.1570 140.6250 201° Southwest 404 465 34,000  Level FlightAware ADS-B
Sun 07:26:25 PM -30.2110 140.6020 200° South 404 465 34,000  Level FlightAware ADS-B
Sun 07:26:50 PM -30.2480 140.5870 199° South 404 465 34,000  Level FlightAware ADS-B
Sun 07:27:20 PM -30.5472 140.4388 24° Northeast 12,300  Descending Aus ATC (Calculated)
Sun 07:27:26 PM -30.3020 140.5640 200° South 404 465 34,000 30,279 Climbing FlightAware ADS-B
Sun 07:28:03 PM -30.3570 140.5410 200° South 404 465 34,000  Level FlightAware ADS-B
Sun 07:28:39 PM -30.4110 140.5180 200° South 404 465 34,000  Level FlightAware ADS-B
Sun 07:29:15 PM -30.4650 140.4950 200° South 404 465 34,000  Level FlightAware ADS-B
Sun 07:29:24 PM -30.7594 140.3428 25° Northeast 12,300  Descending Aus ATC (Calculated)
Sun 07:29:51 PM -30.5190 140.4730 200° South 404 465 34,000 20,667 Climbing FlightAware ADS-B
Sun 07:30:19 PM -30.8654 140.2947 25° Northeast 12,300  Descending Aus ATC (Calculated)
Sun 07:30:27 PM -30.5720 140.4500 200° South 404 465 34,000 29,591 Climbing FlightAware ADS-B
Sun 07:31:03 PM -30.6260 140.4270 200° South 404 465 34,000  Level FlightAware ADS-B
Sun 07:31:48 PM -30.8520 140.3020 205° Southwest 402 463 34,000  Level FlightAware ADS-B
Sun 07:32:22 PM -30.9020 140.2790 202° Southwest 402 463 34,000  Level FlightAware ADS-B
Sun 07:32:59 PM -30.9570 140.2550 201° Southwest 402 463 34,000  Level FlightAware ADS-B
Sun 07:33:35 PM -31.0100 140.2310 201° Southwest 402 463 34,000  Level FlightAware ADS-B
Sun 07:34:11 PM -31.0630 140.2070 201° Southwest 402 463 34,000  Level FlightAware ADS-B
Sun 07:34:47 PM -31.1160 140.1840 200° South 402 463 34,000  Level FlightAware ADS-B
Sun 07:35:23 PM -31.1690 140.1600 201° Southwest 402 463 34,000  Level FlightAware ADS-B
Sun 07:36:00 PM -31.2240 140.1350 201° Southwest 402 463 34,000  Level FlightAware ADS-B
Sun 07:36:36 PM -31.2770 140.1110 201° Southwest 402 463 34,000  Level FlightAware ADS-B
Sun 07:37:12 PM -31.3300 140.0870 201° Southwest 402 463 34,000 338 Level FlightAware ADS-B
Sun 07:37:47 PM -31.4732 140.0160 201° Southwest 397 457 34,400  Climbing Aus ATC (RADAR)
Sun 07:37:48 PM -31.3830 140.0640 201° Southwest 402 463 34,000 -649 Descending FlightAware ADS-B
Sun 07:38:24 PM -31.4370 140.0400 201° Southwest 402 463 34,000  Level FlightAware ADS-B
Sun 07:39:00 PM -31.4900 140.0160 201° Southwest 402 463 34,000  Level FlightAware ADS-B
Sun 07:39:36 PM -31.5430 139.9920 201° Southwest 402 463 34,000 358 Level FlightAware ADS-B
Sun 07:40:07 PM -31.7160 139.9059 201° Southwest 403 464 34,400 364 Climbing Aus ATC (RADAR)
Sun 07:40:42 PM -31.7764 139.8752 203° Southwest 406 467 34,400  Level Aus ATC (RADAR)
Sun 07:40:46 PM -31.7800 139.8760 203° Southwest 34,000  Descending FlightAware ADS-B
Sun 07:41:27 PM -31.8549 139.8402 203° Southwest 403 464 34,400  Climbing Aus ATC (RADAR)
Sun 07:41:47 PM -31.8790 139.8300 203° Southwest 406 467 34,000 -436 Descending FlightAware ADS-B
Sun 07:42:22 PM -31.9440 139.7990 202° Southwest 439 505 34,000 369 Level FlightAware ADS-B
Sun 07:42:52 PM -32.0036 139.7720 202° Southwest 405 466 34,400  Climbing Aus ATC (RADAR)
Sun 07:43:08 PM -32.0170 139.7650 202° Southwest 406 467 34,000 -364 Descending FlightAware ADS-B
Sun 07:43:58 PM -32.1080 139.7220 202° Southwest 406 467 34,000  Level FlightAware ADS-B
Sun 07:44:34 PM -32.1620 139.6970 201° Southwest 406 467 34,000 286 Level FlightAware ADS-B
Sun 07:45:22 PM -32.2661 139.6483 201° Southwest 408 470 34,400  Climbing Aus ATC (RADAR)
Sun 07:45:26 PM -32.2720 139.6460 201° Southwest 542 624 34,000 -615 Descending FlightAware ADS-B
Sun 07:46:01 PM -32.3340 139.6170 202° Southwest 410 472 34,000  Level FlightAware ADS-B
Sun 07:46:37 PM -32.3980 139.5870 202° Southwest 409 471 34,000  Level FlightAware ADS-B
Sun 07:47:12 PM -32.4570 139.5590 202° Southwest 409 471 34,000  Level FlightAware ADS-B
Sun 07:47:46 PM -32.5190 139.5300 202° Southwest 408 470 34,000  Level FlightAware ADS-B
Sun 07:48:22 PM -32.5830 139.5000 202° Southwest 410 472 34,000  Level FlightAware ADS-B
Sun 07:49:00 PM -32.6460 139.4701 202° Southwest 410 472 34,000  Level FlightAware ADS-B (YPAD / ADL)
Sun 07:49:32 PM -32.7090 139.4400 202° Southwest 411 473 34,000  Level FlightAware ADS-B
Sun 07:50:04 PM -32.7647 139.4136 202° Southwest 413 475 34,000 324 Level FlightAware ADS-B (YPAD / ADL)
Sun 07:50:46 PM -32.8390 139.3795 202° Southwest 416 479 34,400  Climbing Aus ATC (RADAR)
Sun 07:50:47 PM -32.8410 139.3770 202° Southwest 415 478 34,000 -1,000 Descending FlightAware ADS-B
Sun 07:51:10 PM -32.8818 139.3577 202° Southwest 415 478 34,000  Level FlightAware ADS-B (YPAD / ADL)
Sun 07:51:40 PM -32.9395 139.3329 200° South 426 490 34,000 100 Level FlightAware ADS-B (YPAD / ADL)
Sun 07:52:10 PM -32.9963 139.3162 194° South 426 490 34,100 100 Climbing FlightAware ADS-B (YPAD / ADL)
Sun 07:52:40 PM -33.0541 139.2990 194° South 423 487 34,100 -98 Level FlightAware ADS-B (YPAD / ADL)
Sun 07:53:11 PM -33.1134 139.2808 194° South 421 484 34,000 -98 Descending FlightAware ADS-B (YPAD / ADL)
Sun 07:53:41 PM -33.1628 139.2656 194° South 420 483 34,000  Level FlightAware ADS-B (YPAD / ADL)
Sun 07:54:12 PM -33.2267 139.2462 194° South 419 482 34,000 375 Level FlightAware ADS-B (YPAD / ADL)
Sun 07:54:45 PM -33.2875 139.2289 194° South 419 482 34,400 -300 Climbing Aus ATC (RADAR)
Sun 07:54:52 PM -33.3020 139.2235 194° South 420 483 33,800 -2,936 Descending FlightAware ADS-B (YPAD / ADL)
Sun 07:55:32 PM -33.3773 139.2006 194° South 422 486 32,100 -2,143 Descending FlightAware ADS-B (YPAD / ADL)
Sun 07:56:02 PM -33.4290 139.1850 194° South 413 475 31,300 -1,902 Descending FlightAware ADS-B
Sun 07:56:13 PM -33.4538 139.1773 195° South 409 471 30,800 -2,286 Descending FlightAware ADS-B (YPAD / ADL)
Sun 07:56:44 PM -33.5113 139.1597 194° South 399 459 29,700 -2,123 Descending FlightAware ADS-B (YPAD / ADL)
Sun 07:57:18 PM -33.5722 139.1410 194° South 392 451 28,500 -2,215 Descending FlightAware ADS-B (YPAD / ADL)
Sun 07:57:49 PM -33.6244 139.1250 194° South 385 443 27,300 -2,531 Descending FlightAware ADS-B (YPAD / ADL)
Sun 07:58:22 PM -33.6795 139.1081 194° South 385 443 25,800 -2,294 Descending FlightAware ADS-B (YPAD / ADL)
Sun 07:58:57 PM -33.7350 139.0910 194° South 381 438 24,700 -1,953 Descending FlightAware ADS-B
Sun 07:59:05 PM -33.7549 139.0848 195° South 377 434 24,400 -2,170 Descending FlightAware ADS-B (YPAD / ADL)
Sun 07:59:44 PM -33.8214 139.0644 194° South 367 422 23,000 -2,025 Descending FlightAware ADS-B (YPAD / ADL)
Sun 08:00:25 PM -33.8878 139.0439 194° South 356 410 21,700 -1,944 Descending FlightAware ADS-B (YPAD / ADL)
Sun 08:00:55 PM -33.9334 139.0297 194° South 350 403 20,700 -2,066 Descending FlightAware ADS-B (YPAD / ADL)
Sun 08:01:26 PM -33.9825 139.0146 194° South 344 396 19,600 -2,057 Descending FlightAware ADS-B (YPAD / ADL)
Sun 08:02:05 PM -34.0416 138.9962 194° South 336 387 18,300 -1,944 Descending FlightAware ADS-B (YPAD / ADL)
Sun 08:02:37 PM -34.0897 138.9812 194° South 331 381 17,300 -2,032 Descending FlightAware ADS-B (YPAD / ADL)
Sun 08:03:07 PM -34.1337 138.9675 194° South 326 375 16,200 -1,967 Descending FlightAware ADS-B (YPAD / ADL)
Sun 08:03:38 PM -34.1786 138.9536 194° South 318 366 15,300 -1,869 Descending FlightAware ADS-B (YPAD / ADL)
Sun 08:04:08 PM -34.2220 138.9401 194° South 313 360 14,300 -2,215 Descending FlightAware ADS-B (YPAD / ADL)
Sun 08:04:43 PM -34.2685 138.9256 194° South 315 362 12,900 -1,938 Descending FlightAware ADS-B (YPAD / ADL)
Sun 08:05:13 PM -34.3092 138.9128 194° South 301 346 12,200 -1,662 Descending FlightAware ADS-B (YPAD / ADL)
Sun 08:05:48 PM -34.3568 138.8980 194° South 297 342 11,100 -1,754 Descending FlightAware ADS-B (YPAD / ADL)
Sun 08:06:18 PM -34.3985 138.8849 195° South 288 331 10,300 -1,100 Descending FlightAware ADS-B (YPAD / ADL)
Sun 08:06:48 PM -34.4359 138.8732 194° South 266 306 10,000 -941 Descending FlightAware ADS-B (YPAD / ADL)
Sun 08:07:09 PM -34.4593 138.8658 195° South 259 298 9,500 -1,529 Descending FlightAware ADS-B (YPAD / ADL)
Sun 08:07:39 PM -34.4941 138.8548 195° South 258 297 8,700 -1,560 Descending FlightAware ADS-B (YPAD / ADL)
Sun 08:07:59 PM -34.5170 138.8475 195° South 254 292 8,200 -1,846 Descending FlightAware ADS-B (YPAD / ADL)
Sun 08:08:18 PM -34.5384 138.8408 194° South 259 298 7,500 -1,610 Descending FlightAware ADS-B (YPAD / ADL)
Sun 08:08:40 PM -34.5639 138.8329 194° South 252 290 7,100 -1,463 Descending FlightAware ADS-B (YPAD / ADL)
Sun 08:08:59 PM -34.5864 138.8258 195° South 251 289 6,500 -1,650 Descending FlightAware ADS-B (YPAD / ADL)
Sun 08:09:20 PM -34.6093 138.8185 195° South 252 290 6,000 -1,286 Descending FlightAware ADS-B (YPAD / ADL)
Sun 08:09:41 PM -34.6311 138.8116 195° South 251 289 5,600 -1,171 Descending FlightAware ADS-B (YPAD / ADL)
Sun 08:10:01 PM -34.6562 138.8037 195° South 257 296 5,200 -1,050 Descending FlightAware ADS-B (YPAD / ADL)
Sun 08:10:21 PM -34.6788 138.7966 194° South 254 292 4,900 -878 Descending FlightAware ADS-B (YPAD / ADL)
Sun 08:10:42 PM -34.7023 138.7894 194° South 253 291 4,600 -1,024 Descending FlightAware ADS-B (YPAD / ADL)
Sun 08:11:02 PM -34.7226 138.7831 194° South 251 289 4,200 -1,350 Descending FlightAware ADS-B (YPAD / ADL)
Sun 08:11:22 PM -34.7472 138.7752 195° South 249 287 3,700 -1,500 Descending FlightAware ADS-B (YPAD / ADL)
Sun 08:11:42 PM -34.7697 138.7681 195° South 246 283 3,200 -750 Descending FlightAware ADS-B (YPAD / ADL)
Sun 08:12:02 PM -34.7901 138.7599 198° South 228 262 3,200  Level FlightAware ADS-B (YPAD / ADL)
Sun 08:12:13 PM -34.7987 138.7499 224° Southwest 216 249 3,200 -261 Level FlightAware ADS-B (YPAD / ADL)
Sun 08:12:48 PM -34.8187 138.7190 232° Southwest 191 220 3,000 -218 Descending FlightAware ADS-B (YPAD / ADL)
Sun 08:13:08 PM -34.8297 138.7026 231° Southwest 183 211 3,000 -450 Level FlightAware ADS-B (YPAD / ADL)
Sun 08:13:28 PM -34.8404 138.6872 230° Southwest 177 204 2,700 -900 Descending FlightAware ADS-B (YPAD / ADL)
Sun 08:13:48 PM -34.8517 138.6722 228° Southwest 175 201 2,400 -900 Descending FlightAware ADS-B (YPAD / ADL)
Sun 08:14:08 PM -34.8621 138.6577 229° Southwest 170 196 2,100 -900 Descending FlightAware ADS-B (YPAD / ADL)
Sun 08:14:28 PM -34.8707 138.6452 230° Southwest 166 191 1,800 -878 Descending FlightAware ADS-B (YPAD / ADL)
Sun 08:14:49 PM -34.8822 138.6285 230° Southwest 157 181 1,500 -900 Descending FlightAware ADS-B (YPAD / ADL)
Sun 08:15:08 PM -34.8907 138.6162 230° Southwest 141 162 1,200 -769 Descending FlightAware ADS-B (YPAD / ADL)
Sun 08:15:28 PM -34.8981 138.6051 231° Southwest 135 155 1,000 -714 Descending FlightAware ADS-B (YPAD / ADL)
Sun 08:15:50 PM -34.9062 138.5933 230° Southwest 127 146 700 -714 Descending FlightAware ADS-B (YPAD / ADL)
Sun 08:16:10 PM -34.9132 138.5830 230° Southwest 124 143 500 -667 Descending FlightAware ADS-B (YPAD / ADL)
Sun 08:16:26 PM -34.9201 138.5730 230° Southwest 125 144 300 -727 Descending FlightAware ADS-B (YPAD / ADL)
Sun 08:16:43 PM -34.9266 138.5637 230° Southwest 124 143 100 -706 Descending FlightAware ADS-B (YPAD / ADL)
Sun 08:17:18 PM -34.9390 138.5460 229° Southwest 125 144 -171 Descending FlightAware ADS-B

Login

Don't have an account? Register now (free) for customized features, flight alerts, and more!